Time;durP1;ratioP1;P1;durP2;ratioP2;P2;SDS_P1;SDS_P2;PMS_P1;PMS_P2;Temp;Humidity;BMP_temperature;BMP_pressure;BME280_temperature;BME280_humidity;BME280_pressure;Samples;Min_cycle;Max_cycle;Signal;HPM_P1;HPM_P2
2023/01/25 00:02:02;;;;;;;23.60;14.43;;;;;;;42.00;36.54;100841.13;6212748;23;20387;-87
2023/01/25 00:04:28;;;;;;;17.83;13.40;;;;;;;42.06;36.55;100837.06;6212076;23;20949;-86
2023/01/25 00:06:54;;;;;;;19.53;15.23;;;;;;;41.81;36.97;100830.72;6212787;23;20398;-85
2023/01/25 00:09:21;;;;;;;27.67;15.43;;;;;;;41.77;37.10;100827.06;6213378;23;20934;-86
2023/01/25 00:11:47;;;;;;;25.07;15.27;;;;;;;42.03;36.67;100819.44;6212493;23;20417;-85
2023/01/25 00:14:14;;;;;;;20.50;15.30;;;;;;;42.05;36.64;100816.38;6214541;23;20442;-85
2023/01/25 00:16:41;;;;;;;23.10;14.93;;;;;;;42.04;36.65;100820.22;6215283;23;20871;-90
2023/01/25 00:19:08;;;;;;;21.93;16.33;;;;;;;42.09;36.73;100820.03;6215108;23;20414;-85
2023/01/25 00:21:35;;;;;;;25.57;16.33;;;;;;;42.01;37.07;100810.81;6214608;23;20478;-85
2023/01/25 00:24:01;;;;;;;22.67;15.27;;;;;;;41.81;36.84;100808.94;6214694;23;20442;-86
2023/01/25 00:26:34;;;;;;;27.17;14.47;;;;;;;41.67;36.82;100811.88;6216238;23;20355;-87
2023/01/25 00:29:01;;;;;;;25.83;15.03;;;;;;;41.65;36.83;100805.97;6215751;23;20387;-88
2023/01/25 00:31:33;;;;;;;21.57;16.60;;;;;;;41.57;36.88;100804.13;6214837;23;20638;-86
2023/01/25 00:34:18;;;;;;;26.60;15.70;;;;;;;41.76;36.71;100803.69;6214474;23;20379;-86
2023/01/25 00:36:44;;;;;;;29.50;14.67;;;;;;;41.73;36.81;100799.66;6214684;23;20375;-89
2023/01/25 00:39:12;;;;;;;29.03;14.27;;;;;;;41.78;36.29;100815.03;6214838;23;20449;-86
2023/01/25 00:41:39;;;;;;;24.87;15.73;;;;;;;41.87;36.55;100810.31;6214139;23;20414;-86
2023/01/25 00:44:05;;;;;;;26.90;16.53;;;;;;;41.93;36.95;100802.69;6214438;23;20422;-86
2023/01/25 00:46:31;;;;;;;34.43;17.03;;;;;;;41.93;36.74;100808.16;6216220;23;20429;-86
2023/01/25 00:48:57;;;;;;;20.03;14.80;;;;;;;41.95;36.69;100803.97;6214238;23;20844;-87
2023/01/25 00:51:24;;;;;;;23.70;14.83;;;;;;;42.02;36.98;100811.59;6214643;23;20390;-85
2023/01/25 00:53:50;;;;;;;22.03;16.03;;;;;;;41.93;36.70;100817.16;6214296;23;20375;-86
2023/01/25 00:56:16;;;;;;;18.90;13.80;;;;;;;42.08;36.52;100823.88;6214766;23;20403;-94
2023/01/25 00:58:42;;;;;;;22.47;16.10;;;;;;;42.09;35.68;100820.81;6215045;23;20403;-89
2023/01/25 01:01:09;;;;;;;26.63;14.90;;;;;;;42.17;36.11;100808.25;6214363;23;20387;-84
2023/01/25 01:03:35;;;;;;;24.20;14.77;;;;;;;42.09;36.11;100811.84;6214423;23;20434;-88
2023/01/25 01:06:04;;;;;;;21.60;13.87;;;;;;;41.99;36.18;100812.25;6214488;23;20383;-88
2023/01/25 01:08:33;;;;;;;30.83;18.27;;;;;;;42.03;36.34;100813.97;6214874;23;20474;-90
2023/01/25 01:11:01;;;;;;;23.20;16.57;;;;;;;42.02;36.36;100808.88;6215041;23;20423;-89
2023/01/25 01:13:28;;;;;;;18.10;13.67;;;;;;;42.00;36.58;100808.44;6215212;23;20498;-89
2023/01/25 01:16:27;;;;;;;24.03;14.13;;;;;;;42.05;36.24;100805.47;6214990;23;20383;-89
2023/01/25 01:18:53;;;;;;;20.40;12.97;;;;;;;42.03;36.38;100807.75;6213387;23;20398;-88
2023/01/25 01:21:19;;;;;;;22.67;13.80;;;;;;;41.65;37.09;100802.47;6214537;23;20461;-86
2023/01/25 01:23:46;;;;;;;20.23;15.70;;;;;;;41.81;36.49;100795.31;6214168;23;20534;-89
2023/01/25 01:26:13;;;;;;;22.03;15.80;;;;;;;41.87;36.51;100785.78;6213405;23;20411;-85
2023/01/25 01:28:39;;;;;;;23.63;15.47;;;;;;;41.98;36.27;100788.88;6214518;23;20387;-92
2023/01/25 01:31:09;;;;;;;22.43;15.87;;;;;;;41.93;36.38;100780.91;6217007;23;20375;-94
2023/01/25 01:33:35;;;;;;;20.87;13.40;;;;;;;41.86;36.43;100776.78;6213889;23;20797;-85
2023/01/25 01:36:14;;;;;;;24.23;17.33;;;;;;;41.55;36.65;100765.53;6214179;23;20390;-89
2023/01/25 01:38:41;;;;;;;25.30;14.57;;;;;;;41.76;36.69;100771.78;6213670;23;20643;-85
2023/01/25 01:41:07;;;;;;;24.33;16.63;;;;;;;41.92;36.30;100763.75;6214150;23;20388;-89
2023/01/25 01:43:33;;;;;;;26.30;16.03;;;;;;;41.78;36.59;100755.09;6214086;23;20437;-90
2023/01/25 01:46:01;;;;;;;21.63;13.97;;;;;;;41.84;36.60;100751.81;6213825;23;20387;-87
2023/01/25 01:48:42;;;;;;;23.30;14.30;;;;;;;41.95;36.24;100751.41;6214331;23;20762;-87
2023/01/25 01:51:40;;;;;;;29.00;16.93;;;;;;;41.78;36.78;100736.81;6214289;23;20386;-88
2023/01/25 01:54:09;;;;;;;29.50;15.83;;;;;;;42.02;36.45;100747.00;6213887;23;20441;-86
2023/01/25 01:57:03;;;;;;;23.57;15.80;;;;;;;42.08;36.59;100733.94;6214038;23;20494;-88
2023/01/25 01:59:36;;;;;;;25.53;14.83;;;;;;;42.02;36.81;100729.84;6213850;23;20431;-85
2023/01/25 02:02:02;;;;;;;25.63;17.00;;;;;;;41.82;36.97;100732.31;6213553;23;20728;-89
2023/01/25 02:04:29;;;;;;;19.00;14.50;;;;;;;41.85;36.85;100722.66;6213557;23;20438;-86
2023/01/25 02:07:12;;;;;;;27.93;15.73;;;;;;;41.73;36.91;100722.59;6213912;23;20494;-88
2023/01/25 02:09:39;;;;;;;31.77;17.60;;;;;;;41.85;36.72;100728.91;6214191;23;20395;-85
2023/01/25 02:12:08;;;;;;;26.83;17.13;;;;;;;41.75;36.98;100734.78;6214495;23;20402;-89
2023/01/25 02:14:36;;;;;;;30.33;17.23;;;;;;;41.73;36.99;100730.75;6213878;23;20415;-88
2023/01/25 02:17:03;;;;;;;20.90;16.20;;;;;;;41.62;37.21;100733.13;6213771;23;20736;-89
2023/01/25 02:19:35;;;;;;;22.90;15.27;;;;;;;41.69;36.96;100732.59;6214044;23;20394;-86
2023/01/25 02:22:09;;;;;;;23.10;15.10;;;;;;;41.55;37.16;100727.41;6213772;23;20434;-86
2023/01/25 02:24:42;;;;;;;26.90;15.93;;;;;;;41.55;37.20;100713.78;6213293;23;20936;-86
2023/01/25 02:27:07;;;;;;;20.87;16.23;;;;;;;41.57;37.54;100725.97;6213269;23;20450;-86
2023/01/25 02:29:35;;;;;;;24.50;17.67;;;;;;;41.64;37.06;100724.63;6213497;23;20840;-85
2023/01/25 02:32:05;;;;;;;27.03;14.60;;;;;;;41.71;36.92;100725.66;6213237;23;20184;-90
2023/01/25 02:34:31;;;;;;;21.37;17.73;;;;;;;41.74;36.77;100725.03;6215364;23;20817;-84
2023/01/25 02:36:58;;;;;;;27.67;14.93;;;;;;;41.63;37.02;100721.09;6212980;23;20418;-86
2023/01/25 02:39:26;;;;;;;26.13;14.50;;;;;;;41.69;37.18;100721.69;6213283;23;20427;-85
2023/01/25 02:41:52;;;;;;;26.23;15.97;;;;;;;41.67;37.25;100716.56;6213344;23;20386;-85
2023/01/25 02:44:29;;;;;;;22.57;15.97;;;;;;;41.73;37.11;100717.94;6213409;23;20439;-86
2023/01/25 02:46:55;;;;;;;24.43;16.40;;;;;;;41.68;37.25;100718.19;6213362;23;20387;-86
2023/01/25 02:49:21;;;;;;;22.80;13.90;;;;;;;41.73;37.11;100715.22;6215429;23;20399;-90
2023/01/25 02:51:50;;;;;;;32.33;15.60;;;;;;;41.69;37.21;100711.59;6213065;23;20450;-87
2023/01/25 02:54:19;;;;;;;37.00;16.73;;;;;;;41.67;37.22;100713.84;6212072;23;20722;-90
2023/01/25 02:56:45;;;;;;;25.50;16.27;;;;;;;41.79;37.21;100719.34;6213479;23;20379;-89
2023/01/25 02:59:21;;;;;;;23.60;16.63;;;;;;;41.86;36.82;100716.06;6213960;23;20390;-91
2023/01/25 03:01:47;;;;;;;29.40;15.57;;;;;;;41.81;36.97;100717.09;6213187;23;20875;-86
2023/01/25 03:04:13;;;;;;;27.83;18.27;;;;;;;41.67;37.07;100713.84;6213314;23;20422;-86
2023/01/25 03:06:40;;;;;;;20.13;14.27;;;;;;;41.62;37.71;100719.50;6215159;23;20359;-93
2023/01/25 03:09:08;;;;;;;23.83;14.70;;;;;;;41.69;37.10;100716.25;6213342;23;20400;-85
2023/01/25 03:11:34;;;;;;;26.93;17.77;;;;;;;41.73;37.01;100723.38;6214741;23;20439;-86
2023/01/25 03:14:01;;;;;;;19.27;16.37;;;;;;;41.58;37.23;100724.03;6213051;23;20395;-85
2023/01/25 03:16:27;;;;;;;23.40;17.00;;;;;;;41.47;37.71;100725.56;6212971;23;20393;-87
2023/01/25 03:18:54;;;;;;;19.23;15.77;;;;;;;41.59;37.47;100737.31;6213031;23;20393;-87
2023/01/25 03:21:21;;;;;;;21.73;15.60;;;;;;;41.39;37.61;100729.16;6212907;23;20391;-86
2023/01/25 03:23:53;;;;;;;25.73;15.97;;;;;;;41.60;37.05;100730.72;6212832;23;20446;-88
2023/01/25 03:26:21;;;;;;;24.20;16.17;;;;;;;41.62;36.91;100741.31;6212762;23;20454;-86
2023/01/25 03:28:47;;;;;;;28.40;15.97;;;;;;;41.55;36.93;100736.38;6212956;23;20400;-85
2023/01/25 03:31:15;;;;;;;25.43;15.87;;;;;;;41.57;37.04;100744.22;6212742;23;20383;-85
2023/01/25 03:33:45;;;;;;;23.97;18.27;;;;;;;41.57;37.05;100746.94;6213740;23;20498;-95
2023/01/25 03:36:11;;;;;;;21.40;14.70;;;;;;;41.55;37.09;100744.53;6212958;23;20749;-85
2023/01/25 03:38:37;;;;;;;27.27;17.07;;;;;;;41.57;37.21;100755.91;6212585;23;20388;-85
2023/01/25 03:41:03;;;;;;;23.50;17.07;;;;;;;41.50;36.97;100749.41;6214814;23;20471;-86
2023/01/25 03:43:30;;;;;;;22.03;16.40;;;;;;;41.41;37.45;100760.38;6212781;23;20441;-86
2023/01/25 03:45:58;;;;;;;21.90;15.40;;;;;;;41.48;37.03;100760.63;6214537;23;20368;-86
2023/01/25 03:48:25;;;;;;;26.17;15.80;;;;;;;41.56;37.23;100758.97;6212671;23;20387;-86
2023/01/25 03:50:53;;;;;;;24.60;16.83;;;;;;;41.55;37.37;100762.81;6213015;23;20384;-89
2023/01/25 03:53:27;;;;;;;27.50;16.20;;;;;;;41.50;37.42;100769.28;6213284;23;20407;-90
2023/01/25 03:55:55;;;;;;;20.80;17.37;;;;;;;41.49;37.35;100770.38;6213813;23;20411;-90
2023/01/25 03:58:22;;;;;;;24.07;18.00;;;;;;;41.51;37.20;100781.75;6213972;23;20387;-91
2023/01/25 04:01:03;;;;;;;22.40;17.30;;;;;;;41.54;37.35;100783.78;6213682;23;20927;-89
2023/01/25 04:03:31;;;;;;;26.93;18.93;;;;;;;41.52;37.21;100782.56;6214200;23;20430;-90
2023/01/25 04:05:58;;;;;;;19.60;17.20;;;;;;;41.51;37.33;100789.91;6188896;23;20395;-88
2023/01/25 04:08:29;;;;;;;25.80;16.50;;;;;;;41.41;37.40;100792.25;6215028;23;20465;-90
2023/01/25 04:11:07;;;;;;;22.90;17.00;;;;;;;41.36;37.98;100795.16;6213957;23;20383;-90
2023/01/25 04:13:35;;;;;;;19.87;15.97;;;;;;;41.39;37.47;100806.19;6210757;23;20375;-84
2023/01/25 04:16:02;;;;;;;20.33;16.03;;;;;;;41.39;37.46;100795.31;6187808;23;20441;-85
2023/01/25 04:18:28;;;;;;;22.90;16.87;;;;;;;41.43;37.28;100804.38;6212769;23;20383;-85
2023/01/25 04:20:56;;;;;;;22.57;17.70;;;;;;;41.40;37.34;100807.00;6212702;23;20390;-86
2023/01/25 04:23:24;;;;;;;32.93;19.33;;;;;;;41.38;37.04;100803.81;6212771;23;20447;-90
2023/01/25 04:25:59;;;;;;;25.33;18.97;;;;;;;41.33;37.48;100802.88;6212776;23;20383;-84
2023/01/25 04:28:26;;;;;;;24.73;18.10;;;;;;;41.39;37.26;100803.47;6212689;23;20375;-86
2023/01/25 04:30:54;;;;;;;24.90;18.83;;;;;;;41.39;37.77;100797.22;6212693;23;20376;-85
2023/01/25 04:33:20;;;;;;;35.77;20.00;;;;;;;41.32;37.62;100814.88;6214736;23;20355;-89
2023/01/25 04:35:46;;;;;;;25.97;18.00;;;;;;;41.37;37.72;100810.34;6212992;23;20414;-89
2023/01/25 04:38:12;;;;;;;18.77;16.23;;;;;;;41.40;37.58;100813.22;6213422;23;20380;-89
2023/01/25 04:40:39;;;;;;;23.57;20.20;;;;;;;41.43;37.65;100815.28;6212532;23;20156;-90
2023/01/25 04:43:08;;;;;;;22.07;19.07;;;;;;;41.35;37.56;100810.69;6212925;23;20502;-90
2023/01/25 04:45:35;;;;;;;26.67;19.73;;;;;;;41.38;37.71;100814.69;6212657;23;20403;-85
2023/01/25 04:48:05;;;;;;;26.03;20.90;;;;;;;41.39;37.80;100819.00;6212693;23;20383;-86
2023/01/25 04:50:31;;;;;;;31.90;19.70;;;;;;;41.39;37.55;100819.00;6212771;23;20383;-88
2023/01/25 04:52:57;;;;;;;29.00;21.13;;;;;;;41.39;37.47;100814.38;6213817;23;20376;-91
2023/01/25 04:55:23;;;;;;;27.73;22.20;;;;;;;41.37;37.59;100816.59;6213266;23;20434;-89
2023/01/25 04:57:49;;;;;;;30.30;22.57;;;;;;;41.37;37.02;100827.47;6212303;23;20383;-88
2023/01/25 05:00:16;;;;;;;30.30;23.87;;;;;;;41.35;37.28;100827.03;6213321;23;20555;-89
2023/01/25 05:02:43;;;;;;;33.57;22.20;;;;;;;41.33;37.58;100832.81;6215271;23;20851;-90
2023/01/25 05:05:10;;;;;;;29.60;21.83;;;;;;;41.25;37.57;100828.19;6213716;23;20375;-90
2023/01/25 05:07:37;;;;;;;29.93;19.10;;;;;;;41.23;37.47;100830.44;6214797;23;20387;-91
2023/01/25 05:10:04;;;;;;;24.03;21.13;;;;;;;41.28;37.66;100832.97;6216891;23;20356;-90
2023/01/25 05:12:30;;;;;;;32.77;22.17;;;;;;;41.31;37.46;100842.38;6214076;23;20391;-85
2023/01/25 05:14:56;;;;;;;27.47;20.63;;;;;;;41.30;37.32;100838.88;6189312;23;20387;-85
2023/01/25 05:17:23;;;;;;;29.70;23.17;;;;;;;41.30;37.84;100849.75;6213838;23;20379;-89
2023/01/25 05:19:48;;;;;;;35.40;25.67;;;;;;;41.29;37.66;100853.63;6214038;23;20435;-85
2023/01/25 05:22:19;;;;;;;29.50;21.77;;;;;;;41.26;37.45;100856.22;6214167;23;20376;-85
2023/01/25 05:24:46;;;;;;;36.43;25.23;;;;;;;41.22;37.39;100852.56;6213764;23;20199;-85
2023/01/25 05:27:14;;;;;;;30.37;23.90;;;;;;;41.20;37.62;100862.97;6214094;23;20383;-87
2023/01/25 05:29:42;;;;;;;33.03;21.90;;;;;;;41.22;37.61;100866.94;6214092;23;20731;-86
2023/01/25 05:32:19;;;;;;;28.47;22.37;;;;;;;41.22;37.62;100864.22;6214221;23;20379;-85
2023/01/25 05:34:46;;;;;;;39.53;23.50;;;;;;;41.27;37.50;100871.41;6214065;23;20407;-87
2023/01/25 05:37:15;;;;;;;35.60;22.97;;;;;;;41.29;37.20;100871.88;6213939;23;20724;-86
2023/01/25 05:39:41;;;;;;;38.30;24.67;;;;;;;41.21;37.41;100868.09;6213873;23;20383;-85
2023/01/25 05:42:15;;;;;;;34.10;23.73;;;;;;;41.23;37.92;100875.91;6213698;23;20419;-85
2023/01/25 05:44:41;;;;;;;32.67;23.20;;;;;;;41.19;37.67;100869.53;6213893;23;20430;-86
2023/01/25 05:47:14;;;;;;;33.60;25.80;;;;;;;41.20;37.87;100861.06;6213752;23;20402;-87
2023/01/25 05:49:40;;;;;;;37.17;23.50;;;;;;;41.21;37.11;100864.56;6213599;23;20391;-85
2023/01/25 05:52:06;;;;;;;32.00;22.33;;;;;;;41.23;37.44;100865.81;6213926;23;20470;-86
2023/01/25 05:54:32;;;;;;;34.13;23.60;;;;;;;41.25;37.31;100873.66;6213954;23;20241;-88
2023/01/25 05:56:59;;;;;;;37.53;24.63;;;;;;;41.25;37.62;100876.38;6214384;23;20384;-91
2023/01/25 05:59:25;;;;;;;41.23;29.07;;;;;;;41.19;37.24;100874.97;6214556;23;20856;-90
2023/01/25 06:01:52;;;;;;;48.13;29.50;;;;;;;41.12;37.55;100870.03;6215615;23;20391;-94
2023/01/25 06:04:18;;;;;;;38.00;25.67;;;;;;;41.10;37.68;100872.31;6214740;23;20434;-90
2023/01/25 06:06:44;;;;;;;31.33;24.27;;;;;;;41.10;37.72;100872.31;6213760;23;20389;-84
2023/01/25 06:09:11;;;;;;;41.23;26.43;;;;;;;40.89;37.91;100874.16;6213383;23;20413;-85
2023/01/25 06:11:37;;;;;;;38.73;27.30;;;;;;;41.01;37.78;100877.00;6213150;23;20454;-85
2023/01/25 06:14:03;;;;;;;36.40;26.60;;;;;;;41.05;37.53;100883.38;6213539;23;20738;-92
2023/01/25 06:16:29;;;;;;;35.90;24.87;;;;;;;41.07;37.58;100883.84;6213317;23;20776;-93
2023/01/25 06:18:55;;;;;;;37.50;28.30;;;;;;;41.06;37.61;100882.22;6214395;23;20481;-85
2023/01/25 06:21:21;;;;;;;38.30;27.67;;;;;;;41.07;37.24;100887.38;6212216;23;20383;-90
2023/01/25 06:23:47;;;;;;;37.87;26.43;;;;;;;41.04;37.60;100881.78;6212724;23;20443;-87
2023/01/25 06:26:14;;;;;;;45.83;28.67;;;;;;;41.03;37.30;100891.88;6213288;23;20379;-82
2023/01/25 06:28:41;;;;;;;44.63;27.83;;;;;;;41.02;37.68;100895.72;6215016;23;20832;-83
2023/01/25 06:31:17;;;;;;;38.97;30.57;;;;;;;41.01;37.76;100891.41;6213279;23;20387;-86
2023/01/25 06:33:48;;;;;;;40.77;28.20;;;;;;;40.90;37.48;100895.59;6213973;23;20379;-86
2023/01/25 06:36:15;;;;;;;38.13;27.77;;;;;;;40.89;37.59;100904.06;6213460;23;20387;-89
2023/01/25 06:38:42;;;;;;;36.27;28.10;;;;;;;40.96;37.70;100894.31;6213611;23;20388;-89
2023/01/25 06:41:11;;;;;;;39.00;27.90;;;;;;;40.97;37.61;100895.09;6213663;23;20390;-92
2023/01/25 06:43:38;;;;;;;45.20;32.00;;;;;;;41.02;37.40;100903.09;6213648;23;21001;-89
2023/01/25 06:46:06;;;;;;;53.83;31.80;;;;;;;41.00;37.75;100906.09;6213566;23;20446;-89
2023/01/25 06:48:32;;;;;;;46.10;34.43;;;;;;;41.07;37.27;100913.78;6212198;23;20376;-83
2023/01/25 06:51:06;;;;;;;48.07;33.20;;;;;;;41.05;37.54;100914.09;6211977;23;20406;-84
2023/01/25 06:53:35;;;;;;;50.63;32.77;;;;;;;41.13;37.26;100917.09;6211705;23;20380;-83
2023/01/25 06:56:07;;;;;;;44.60;33.27;;;;;;;41.12;37.48;100920.94;6213237;23;20819;-84
2023/01/25 06:58:34;;;;;;;45.47;33.17;;;;;;;41.07;36.99;100920.03;6213269;23;20371;-84
2023/01/25 07:01:06;;;;;;;43.47;35.83;;;;;;;41.05;37.47;100930.41;6211531;23;20376;-83
2023/01/25 07:03:33;;;;;;;54.23;38.20;;;;;;;41.12;37.09;100924.47;6212627;23;20441;-84
2023/01/25 07:06:06;;;;;;;58.33;37.87;;;;;;;41.16;37.25;100932.78;6212261;23;20387;-83
2023/01/25 07:08:33;;;;;;;66.63;42.07;;;;;;;41.13;37.08;100941.59;6213044;23;20376;-86
2023/01/25 07:11:02;;;;;;;70.13;41.63;;;;;;;41.17;37.40;100939.81;6212094;23;20470;-84
2023/01/25 07:13:29;;;;;;;61.70;41.40;;;;;;;41.21;37.12;100946.22;6212574;23;20380;-86
2023/01/25 07:15:57;;;;;;;55.43;40.70;;;;;;;41.23;37.40;100939.31;6212567;23;20924;-83
2023/01/25 07:18:25;;;;;;;53.00;38.93;;;;;;;41.24;37.13;100954.50;6212812;23;20371;-84
2023/01/25 07:20:51;;;;;;;49.20;36.60;;;;;;;41.26;36.86;100957.72;6212633;23;20466;-81
2023/01/25 07:23:19;;;;;;;48.43;35.43;;;;;;;41.25;37.05;100950.69;6212246;23;20454;-89
2023/01/25 07:25:47;;;;;;;49.40;35.27;;;;;;;41.29;37.36;100951.59;6212663;23;20746;-86
2023/01/25 07:28:14;;;;;;;48.87;37.57;;;;;;;41.34;36.61;100951.47;6212812;23;20387;-87
2023/01/25 07:30:40;;;;;;;53.90;36.57;;;;;;;41.35;36.67;100957.69;6212490;23;20738;-83
2023/01/25 07:33:07;;;;;;;45.17;37.13;;;;;;;41.35;36.67;100965.88;6212763;23;20383;-85
2023/01/25 07:35:33;;;;;;;43.43;33.70;;;;;;;41.28;37.14;100965.56;6213226;23;20356;-87
2023/01/25 07:37:59;;;;;;;51.17;33.50;;;;;;;41.34;36.56;100973.25;6213655;23;20494;-91
2023/01/25 07:40:25;;;;;;;56.17;34.00;;;;;;;41.28;36.93;100973.72;6213594;23;20437;-91
2023/01/25 07:42:52;;;;;;;47.03;33.43;;;;;;;41.36;37.22;100972.09;6212996;23;20429;-83
2023/01/25 07:45:19;;;;;;;46.77;34.23;;;;;;;41.30;36.98;100982.34;6212512;23;20394;-85
2023/01/25 07:47:46;;;;;;;47.87;34.83;;;;;;;41.32;36.96;100982.84;6214176;23;20378;-85
2023/01/25 07:50:12;;;;;;;55.43;37.00;;;;;;;41.46;36.64;100985.38;6212438;23;20391;-84
2023/01/25 07:52:38;;;;;;;58.17;35.60;;;;;;;41.50;36.95;100991.75;6212766;23;20394;-86
2023/01/25 07:55:05;;;;;;;51.13;35.10;;;;;;;41.48;36.72;100983.91;6212686;23;20410;-87
2023/01/25 07:57:30;;;;;;;47.43;33.17;;;;;;;41.45;36.74;100989.22;6212681;23;20393;-86
2023/01/25 07:59:56;;;;;;;59.53;32.80;;;;;;;41.47;36.80;100992.41;6212622;23;20462;-85
2023/01/25 08:02:22;;;;;;;50.53;36.20;;;;;;;41.50;36.64;100980.88;6212429;23;20156;-85
2023/01/25 08:04:50;;;;;;;50.83;33.20;;;;;;;41.56;36.86;100991.25;6212444;23;20183;-85
2023/01/25 08:07:16;;;;;;;40.77;28.33;;;;;;;41.57;36.80;100989.31;6214186;23;20160;-85
2023/01/25 08:09:42;;;;;;;48.70;35.47;;;;;;;41.64;36.78;100992.31;6214346;23;20382;-84
2023/01/25 08:12:08;;;;;;;39.60;29.20;;;;;;;41.67;36.50;100985.41;6212468;23;20746;-85
2023/01/25 08:14:33;;;;;;;45.50;27.40;;;;;;;41.62;36.48;100983.69;6212303;23;20175;-84
2023/01/25 08:17:00;;;;;;;43.30;29.90;;;;;;;41.72;36.33;100988.72;6212420;23;20395;-84
2023/01/25 08:19:26;;;;;;;30.17;24.73;;;;;;;41.72;36.41;100986.00;6212260;23;20398;-84
2023/01/25 08:21:52;;;;;;;35.33;27.20;;;;;;;41.64;36.44;100991.53;6212264;23;20403;-82
2023/01/25 08:24:18;;;;;;;37.90;25.57;;;;;;;41.76;36.19;100992.44;6212028;23;20943;-82
2023/01/25 08:26:44;;;;;;;41.33;25.80;;;;;;;41.83;36.30;100991.91;6212113;23;20432;-82
2023/01/25 08:29:11;;;;;;;35.30;23.73;;;;;;;41.88;36.00;100991.72;6212299;23;20395;-82
2023/01/25 08:31:40;;;;;;;37.20;24.33;;;;;;;41.86;36.31;100986.56;6212434;23;20604;-82
2023/01/25 08:34:06;;;;;;;32.30;22.67;;;;;;;41.80;35.91;100995.28;6212365;23;20400;-88
2023/01/25 08:36:33;;;;;;;27.33;21.23;;;;;;;41.82;36.11;100999.28;6214016;23;20399;-83
2023/01/25 08:39:01;;;;;;;30.83;21.30;;;;;;;41.74;35.68;100983.81;6214429;23;20391;-89
2023/01/25 08:41:30;;;;;;;30.13;22.77;;;;;;;41.71;36.60;100994.50;6214721;23;20498;-90
2023/01/25 08:43:56;;;;;;;43.73;21.30;;;;;;;41.50;37.08;100986.31;6214878;23;20513;-90
2023/01/25 08:46:25;;;;;;;28.83;20.40;;;;;;;41.70;36.40;100995.66;6213767;23;20380;-85
2023/01/25 08:48:58;;;;;;;25.90;17.97;;;;;;;41.74;36.41;101002.00;6214109;23;20409;-88
2023/01/25 08:51:24;;;;;;;23.90;18.90;;;;;;;41.53;36.43;100991.88;6214502;23;20411;-88
2023/01/25 08:53:50;;;;;;;24.70;18.50;;;;;;;41.76;36.05;100994.38;6213602;23;20383;-82
2023/01/25 08:56:17;;;;;;;25.03;18.10;;;;;;;41.89;36.03;100987.88;6214827;23;20397;-81
2023/01/25 08:58:45;;;;;;;27.00;19.37;;;;;;;41.71;36.73;100987.13;6213132;23;20395;-82
2023/01/25 09:01:14;;;;;;;27.90;20.10;;;;;;;41.82;36.34;100984.88;6213263;23;20387;-87
2023/01/25 09:03:42;;;;;;;27.90;19.90;;;;;;;42.03;35.95;100991.13;6213655;23;20421;-89
2023/01/25 09:06:09;;;;;;;30.60;19.37;;;;;;;41.92;35.92;100986.38;6213306;23;20406;-92
2023/01/25 09:08:36;;;;;;;26.20;17.97;;;;;;;41.67;36.63;100986.19;6214089;23;20458;-91
2023/01/25 09:11:05;;;;;;;28.87;19.80;;;;;;;41.81;36.30;100992.25;6214677;23;20383;-90
2023/01/25 09:13:31;;;;;;;30.13;21.67;;;;;;;41.89;36.20;100987.88;6213317;23;20403;-90
2023/01/25 09:16:12;;;;;;;31.93;18.90;;;;;;;41.96;36.45;100979.94;6215515;23;20409;-93
2023/01/25 09:18:40;;;;;;;30.23;20.70;;;;;;;41.95;36.39;100988.47;6215013;23;20386;-88
2023/01/25 09:21:09;;;;;;;34.67;23.30;;;;;;;41.82;36.57;100980.22;6214279;23;20469;-86
2023/01/25 09:23:36;;;;;;;25.70;19.50;;;;;;;42.03;36.10;100990.31;6214328;23;20442;-88
2023/01/25 09:26:02;;;;;;;30.20;20.50;;;;;;;41.74;36.61;100996.56;6215042;23;20380;-90
2023/01/25 09:28:31;;;;;;;32.80;23.13;;;;;;;41.87;36.28;100995.56;6216565;23;20870;-91
2023/01/25 09:31:00;;;;;;;26.67;20.07;;;;;;;42.09;36.02;100997.16;6211431;23;20383;-88
2023/01/25 09:33:27;;;;;;;27.83;20.50;;;;;;;42.18;35.81;100995.22;6213707;23;20379;-78
2023/01/25 09:35:54;;;;;;;26.80;21.70;;;;;;;42.17;35.66;100999.06;6215155;23;20706;-87
2023/01/25 09:38:20;;;;;;;26.03;18.73;;;;;;;41.89;36.72;100993.31;6213514;23;20387;-83
2023/01/25 09:41:28;;;;;;;29.47;17.80;;;;;;;42.17;35.81;100995.53;6214070;23;20419;-91
2023/01/25 09:44:15;;;;;;;25.90;18.27;;;;;;;42.06;35.74;100992.41;6184292;23;20773;-91
2023/01/25 09:46:47;;;;;;;23.60;17.47;;;;;;;42.19;35.70;100980.47;6214941;23;20388;-92
2023/01/25 09:49:19;;;;;;;24.90;16.20;;;;;;;42.24;35.26;100977.53;6214832;23;20518;-89
2023/01/25 09:51:57;;;;;;;26.77;19.80;;;;;;;42.08;35.31;100990.13;6214528;23;20745;-89
2023/01/25 09:54:27;;;;;;;32.23;20.33;;;;;;;42.31;35.24;100982.44;6213113;23;20394;-84
2023/01/25 09:56:55;;;;;;;30.37;17.80;;;;;;;42.36;35.44;100984.97;6212959;23;20446;-84
2023/01/25 09:59:28;;;;;;;25.20;18.33;;;;;;;42.32;35.37;100984.84;6213995;23;20427;-90
2023/01/25 10:02:05;;;;;;;20.87;17.00;;;;;;;42.46;34.97;100983.75;6214270;23;20445;-92
2023/01/25 10:04:43;;;;;;;27.80;19.50;;;;;;;42.50;35.16;100990.13;6213016;23;20441;-92
2023/01/25 10:07:20;;;;;;;25.00;19.17;;;;;;;42.38;35.26;100986.22;6212576;23;20466;-91
2023/01/25 10:10:05;;;;;;;26.27;18.80;;;;;;;42.32;35.53;100994.94;6212811;23;20482;-91
2023/01/25 10:12:36;;;;;;;30.83;18.57;;;;;;;42.33;35.06;100994.59;6213024;23;20419;-91
2023/01/25 10:15:16;;;;;;;25.70;18.90;;;;;;;42.50;34.72;100998.31;6212848;23;20387;-89
2023/01/25 10:17:42;;;;;;;21.97;17.30;;;;;;;42.27;35.22;100992.41;6212863;23;20423;-91
2023/01/25 10:20:35;;;;;;;27.30;18.87;;;;;;;42.48;35.13;101000.56;6211850;23;20848;-84
2023/01/25 10:23:35;;;;;;;22.87;16.83;;;;;;;42.44;35.12;101005.09;6211913;23;20935;-92
2023/01/25 10:26:09;;;;;;;23.57;18.17;;;;;;;42.54;35.20;101013.69;6212470;23;20447;-88
2023/01/25 10:28:38;;;;;;;28.10;19.87;;;;;;;42.62;34.99;101010.09;6211527;23;20383;-84
2023/01/25 10:31:18;;;;;;;23.63;18.20;;;;;;;42.70;34.76;101004.88;6212515;23;20465;-90
2023/01/25 10:33:46;;;;;;;30.90;19.27;;;;;;;42.67;34.78;101009.09;6213659;23;20352;-82
2023/01/25 10:36:17;;;;;;;24.40;19.00;;;;;;;42.56;34.96;101008.69;6188536;23;20521;-93
2023/01/25 10:38:46;;;;;;;20.40;17.27;;;;;;;42.62;34.86;101003.84;6214122;23;20718;-89
2023/01/25 10:41:16;;;;;;;24.80;20.27;;;;;;;42.71;34.59;100995.56;6213568;23;20866;-88
2023/01/25 10:43:41;;;;;;;32.37;19.63;;;;;;;42.73;34.93;100998.78;6213360;23;20414;-84
2023/01/25 10:46:23;;;;;;;23.83;18.67;;;;;;;42.66;34.79;100993.84;6212982;23;20419;-88
2023/01/25 10:48:49;;;;;;;32.37;19.53;;;;;;;42.70;34.77;100985.78;6212942;23;20611;-84
2023/01/25 10:51:30;;;;;;;27.43;17.67;;;;;;;42.46;34.82;100994.66;6212728;23;20383;-87
2023/01/25 10:54:02;;;;;;;26.23;17.80;;;;;;;42.56;34.97;100988.78;6213615;23;20390;-88
2023/01/25 10:56:31;;;;;;;23.80;17.53;;;;;;;42.63;34.48;100989.06;6214512;23;20406;-87
2023/01/25 10:59:22;;;;;;;23.23;18.90;;;;;;;42.69;34.91;100982.28;6212804;23;20449;-88
2023/01/25 11:01:48;;;;;;;30.17;18.60;;;;;;;42.75;34.71;100977.41;6213224;23;20723;-88
2023/01/25 11:04:35;;;;;;;26.73;19.17;;;;;;;42.68;34.69;100977.94;6212855;23;20438;-88
2023/01/25 11:07:04;;;;;;;22.70;17.67;;;;;;;42.83;34.23;100966.38;6212951;23;20391;-84
2023/01/25 11:09:34;;;;;;;26.70;18.87;;;;;;;42.79;35.13;100964.69;6212878;23;20388;-88
2023/01/25 11:12:01;;;;;;;25.83;17.90;;;;;;;42.74;35.19;100957.50;6214420;23;20395;-84
2023/01/25 11:14:30;;;;;;;43.13;20.80;;;;;;;42.79;35.10;100949.13;6213007;23;20375;-87
2023/01/25 11:16:57;;;;;;;34.53;19.87;;;;;;;42.78;34.96;100954.88;6212833;23;20407;-88
2023/01/25 11:19:36;;;;;;;26.40;18.33;;;;;;;42.82;35.04;100948.41;6212736;23;20470;-85